Aérodrome :
LOGIN :

S'inscrire | Disclaimer

   EN    FR    IT 

 










Légende :    VFR   VFR Marginal   IFR   IFR Intensif   IFR Très Intensif
Visi : 
Plafond : 
>= 8 km
>= 3000ft
5 à 8 km
1000 à 3000 ft
1500m à 5 km
500 à 1000 ft
800 à 1500m
200 à 500 ft
< 800m
< 200 ft
Symboles :   Orages  Brouillard  Fortes neiges  Fortes précipitations  Vent > 20 kt
SIGMETs :   Divers  Orages  Givrage  Turbulence  Onde Orograph.  Cendres Volcan.







- Altitude de l'aérodrome : 33 ft
- Code IATA : MHZ


EGUN - RAF Mildenhall

DERNIER METAR :
  • 160717Z AUTO 13003KT 6000 BR OVC012 14/14 A2997 RMK AO2 RAB06E17 SLP152 $

METARs EXPIRÉS :
  • 160706Z AUTO 12003KT 6000 -RA BR BKN008 OVC012 14/14 A2997 RMK AO2 RAB06 BKN V OVC SLP152 $
  • 160636Z AUTO 14003KT 6000 BR OVC006 14/14 A2997 RMK AO2 CIG 002V006 SLP152 $
  • 160631Z 13003KT 4400 BR OVC004 14/14 A2997 RMK AO2A VIS 3600V4400 CIG 002V004 SLP152 $
  • 160556Z 00000KT 3200 BR OVC002 14/14 A2997 RMK AO2A CIG 001 RWY29 SLP152 60000 T01370137 10137 20121 53005 $
  • 160536Z 00000KT 3200 BR OVC002 14/14 A2996 RMK AO2A SLP149 $
  • 160521Z 15003KT 2800 BR OVC002 14/14 A2996 RMK AO2A CIG 001 RWY29 SLP149 $
  • 160501Z 16005KT 2400 BR OVC002 13/13 A2995 RMK AO2A SLP145 $
  • 160456Z 15004KT 2200 BR OVC002 13/13 A2995 RMK AO2A VIS 2200V3000 SLP145 T01340134 $
  • 160447Z 15004KT 3000 BR OVC002 13/13 A2995 RMK AO2A VIS 2200 RWY29 SLP145 $
  • 160442Z 15007KT 3200 BR OVC002 13/13 A2995 RMK AO2A SLP145 $
  • 160422Z 18006KT 2800 BR OVC002 13/13 A2995 RMK AO2A CIG 001 RWY29 SLP145 $

TAF TAF EGUN
Valide du 16 à 04h jusqu'au 17 à 10h UTC


160413Z 1604/1710 VRB06KT 1200 BR OVC002 QNH2994INS
TEMPO 1605/1607 BKN005
BECMG 1606/1607 18009KT 3200 BR BKN008 QNH2996INS
BECMG 1609/1610 20009KT 9999 NSW SCT010 QNH2997INS
BECMG 1614/1615 21009KT 9999 BKN020 QNH2997INS
BECMG 1619/1620 22009KT 9999 BKN010 QNH3000INS TX19/1614Z TN11/1704Z
Pas de NOTAMs connus pour ce terrain.



MET'MAP, la Météo Aéronautique d'un coup d'oeil ! - Copyright ORBIFLY Décembre 2007 - Disclaimer

ORBIFLY MET'MAP TEAM :

Programmation & Développement : Alexandra Zaïnal
Conception & Développement : Baudouin d'Aumeries
Co-Programmation & Développement : Marc-Olivier Méhu
Soutien technique & logistique : Manuel Goepfert

Contact : metmap@orbifly.com




SOURCES & CREDITS :

   NOAA